createdAt,value
2022-09-05T00:02:29.539Z,97409.43
2022-09-05T00:05:21.809Z,97408.64
2022-09-05T00:08:13.586Z,97408.38
2022-09-05T00:11:41.222Z,97410.77
2022-09-05T00:15:15.262Z,97410.80
2022-09-05T00:20:55.119Z,97413.44
2022-09-05T00:24:29.816Z,97413.35
2022-09-05T00:28:41.153Z,97406.44
2022-09-05T00:32:00.012Z,97408.30
2022-09-05T00:35:26.034Z,97407.04
2022-09-05T00:38:17.710Z,97407.50
2022-09-05T00:41:09.030Z,97409.06
2022-09-05T00:43:57.509Z,97410.19
2022-09-05T00:47:06.458Z,97409.87
2022-09-05T00:50:00.355Z,97410.50
2022-09-05T00:53:07.997Z,97410.43
2022-09-05T00:56:09.540Z,97411.34
2022-09-05T00:59:33.038Z,97412.08
2022-09-05T01:02:33.339Z,97409.64
2022-09-05T01:05:42.673Z,97409.89
2022-09-05T01:09:07.707Z,97407.52
2022-09-05T01:12:15.282Z,97406.34
2022-09-05T01:15:04.225Z,97403.95
2022-09-05T01:18:17.495Z,97398.23
2022-09-05T01:21:06.254Z,97400.80
2022-09-05T01:24:04.111Z,97405.07
2022-09-05T01:27:33.786Z,97401.74
2022-09-05T01:31:15.840Z,97401.47
2022-09-05T01:34:30.887Z,97404.30
2022-09-05T01:38:08.962Z,97403.23
2022-09-05T01:41:18.497Z,97403.16
2022-09-05T01:44:22.194Z,97402.52
2022-09-05T01:47:35.525Z,97401.78
2022-09-05T01:50:40.792Z,97400.57
2022-09-05T01:53:44.677Z,97397.11
2022-09-05T01:56:41.235Z,97396.59
2022-09-05T01:59:45.865Z,97397.52
2022-09-05T02:02:38.825Z,97393.23
2022-09-05T02:05:48.867Z,97392.10
2022-09-05T02:09:14.874Z,97387.75
2022-09-05T02:13:01.846Z,97388.39
2022-09-05T02:16:04.905Z,97392.34
2022-09-05T02:19:09.454Z,97392.13
2022-09-05T02:22:07.730Z,97392.66
2022-09-05T02:26:00.375Z,97390.65
2022-09-05T02:28:30.717Z,97390.06
2022-09-05T02:31:27.795Z,97390.30
2022-09-05T02:34:35.670Z,97389.00
2022-09-05T02:39:19.955Z,97391.16
2022-09-05T02:45:07.047Z,97386.37
2022-09-05T02:45:14.816Z,97387.56
2022-09-05T02:47:27.937Z,97390.17
2022-09-05T02:57:12.766Z,97388.28
2022-09-05T02:57:33.867Z,97389.38
2022-09-05T02:57:37.801Z,97390.15
2022-09-05T03:00:37.289Z,97389.80
2022-09-05T03:03:39.236Z,97388.08
2022-09-05T03:06:55.213Z,97385.70
2022-09-05T03:09:48.375Z,97395.59
2022-09-05T03:13:11.961Z,97397.61
2022-09-05T03:16:22.662Z,97397.77
2022-09-05T03:19:46.744Z,97398.02
2022-09-05T03:22:54.841Z,97397.48
2022-09-05T03:26:02.511Z,97401.84
2022-09-05T03:29:18.594Z,97402.10
2022-09-05T03:32:26.149Z,97408.73
2022-09-05T03:35:31.166Z,97407.30
2022-09-05T03:38:32.066Z,97412.45
2022-09-05T03:41:56.751Z,97414.59
2022-09-05T03:44:49.214Z,97416.95
2022-09-05T03:48:23.156Z,97415.17
2022-09-05T03:57:05.594Z,97414.20
2022-09-05T03:57:23.791Z,97410.86
2022-09-05T03:58:59.383Z,97418.36
2022-09-05T04:06:11.643Z,97414.40
2022-09-05T04:08:15.725Z,97416.44
2022-09-05T04:08:38.578Z,97413.77
2022-09-05T04:11:37.786Z,97422.20
2022-09-05T04:14:29.090Z,97424.50
2022-09-05T04:17:44.240Z,97425.63
2022-09-05T04:20:55.406Z,97425.52
2022-09-05T04:24:07.252Z,97422.89
2022-09-05T04:27:02.542Z,97424.58
2022-09-05T04:30:11.517Z,97425.93
2022-09-05T04:33:07.699Z,97423.48
2022-09-05T04:36:18.602Z,97430.55
2022-09-05T04:39:19.828Z,97432.47
2022-09-05T04:42:05.649Z,97438.39
2022-09-05T04:44:57.210Z,97441.84
2022-09-05T04:47:52.577Z,97443.56
2022-09-05T04:51:08.292Z,97446.49
2022-09-05T04:54:14.402Z,97451.34
2022-09-05T04:57:27.894Z,97453.13
2022-09-05T05:06:03.162Z,97452.90
2022-09-05T05:06:09.585Z,97463.20
2022-09-05T05:07:06.055Z,97468.14
2022-09-05T05:12:34.829Z,97464.98
2022-09-05T05:17:58.094Z,97470.11
2022-09-05T05:18:10.381Z,97468.95
2022-09-05T05:19:34.745Z,97469.03
2022-09-05T05:22:21.134Z,97470.33
2022-09-05T05:25:13.073Z,97474.23
2022-09-05T05:28:24.177Z,97475.00
2022-09-05T05:31:15.012Z,97477.47
2022-09-05T05:34:24.456Z,97479.23
2022-09-05T05:37:25.570Z,97478.48
2022-09-05T05:40:25.819Z,97477.73
2022-09-05T05:43:35.167Z,97475.95
2022-09-05T05:46:39.721Z,97476.26
2022-09-05T05:49:40.069Z,97474.88
2022-09-05T05:52:41.725Z,97474.41
2022-09-05T05:56:16.982Z,97482.73
2022-09-05T05:59:24.893Z,97485.48
2022-09-05T06:03:24.699Z,97490.86
2022-09-05T06:06:29.352Z,97494.39
2022-09-05T06:15:00.013Z,97502.50
2022-09-05T06:15:06.531Z,97498.95
2022-09-05T06:16:35.859Z,97504.05
2022-09-05T06:22:06.807Z,97500.89
2022-09-05T06:23:38.556Z,97507.25
2022-09-05T06:26:54.988Z,97507.55
2022-09-05T06:29:55.755Z,97509.17
2022-09-05T06:33:03.518Z,97508.88
2022-09-05T06:36:19.405Z,97509.73
2022-09-05T06:39:11.023Z,97515.97
2022-09-05T06:42:28.654Z,97515.69
2022-09-05T06:46:04.999Z,97511.86
2022-09-05T06:49:29.940Z,97512.98
2022-09-05T06:52:49.343Z,97518.27
2022-09-05T06:56:25.692Z,97523.81
2022-09-05T06:59:34.547Z,97529.90
2022-09-05T07:02:59.268Z,97527.13
2022-09-05T07:05:55.773Z,97524.82
2022-09-05T07:09:19.764Z,97524.89
2022-09-05T07:12:16.312Z,97525.66
2022-09-05T07:15:12.542Z,97524.41
2022-09-05T07:18:18.880Z,97527.63
2022-09-05T07:21:40.371Z,97528.08
2022-09-05T07:24:54.199Z,97528.52
2022-09-05T07:28:29.056Z,97526.13
2022-09-05T07:31:37.741Z,97530.50
2022-09-05T07:34:35.856Z,97531.50
2022-09-05T07:37:26.038Z,97537.88
2022-09-05T07:40:25.078Z,97538.39
2022-09-05T07:43:30.851Z,97539.13
2022-09-05T07:46:25.237Z,97540.78
2022-09-05T07:49:20.729Z,97545.44
2022-09-05T07:56:49.820Z,97545.96
2022-09-05T07:56:58.897Z,97542.63
2022-09-05T07:58:50.639Z,97539.04
2022-09-05T08:01:41.316Z,97545.81
2022-09-05T08:04:35.969Z,97546.28
2022-09-05T08:07:46.511Z,97545.14
2022-09-05T08:11:24.204Z,97539.76
2022-09-05T08:14:50.278Z,97533.08
2022-09-05T08:17:51.319Z,97533.20
2022-09-05T08:21:03.957Z,97534.02
2022-09-05T08:23:59.044Z,97534.95
2022-09-05T08:26:47.741Z,97533.21
2022-09-05T08:29:38.605Z,97534.46
2022-09-05T08:32:35.208Z,97536.10
2022-09-05T08:35:38.910Z,97537.00
2022-09-05T08:38:26.174Z,97536.27
2022-09-05T08:41:54.649Z,97529.11
2022-09-05T08:46:39.337Z,97530.66
2022-09-05T08:49:06.766Z,97530.66
2022-09-05T08:52:04.230Z,97527.86
2022-09-05T08:55:04.363Z,97526.33
2022-09-05T08:58:02.621Z,97528.61
2022-09-05T09:01:07.133Z,97529.00
2022-09-05T09:04:46.215Z,97528.92
2022-09-05T09:07:57.821Z,97526.70
2022-09-05T09:11:05.309Z,97524.24
2022-09-05T09:14:32.133Z,97520.56
2022-09-05T09:17:27.638Z,97523.49
2022-09-05T09:20:26.765Z,97526.73
2022-09-05T09:23:44.296Z,97524.48
2022-09-05T09:27:06.346Z,97526.63
2022-09-05T09:29:56.598Z,97524.05
2022-09-05T09:32:50.741Z,97521.69
2022-09-05T09:35:47.355Z,97521.17
2022-09-05T09:38:53.050Z,97526.46
2022-09-05T09:41:57.422Z,97524.80
2022-09-05T09:45:28.001Z,97528.48
2022-09-05T09:48:43.560Z,97529.16
2022-09-05T09:51:54.793Z,97530.09
2022-09-05T09:54:59.902Z,97523.38
2022-09-05T09:58:10.419Z,97518.92
2022-09-05T10:01:35.446Z,97518.66
2022-09-05T10:10:34.785Z,97520.08
2022-09-05T10:10:57.756Z,97516.92
2022-09-05T10:11:53.457Z,97513.64
2022-09-05T10:15:23.224Z,97508.81
2022-09-05T10:18:31.455Z,97506.64
2022-09-05T10:21:30.137Z,97504.64
2022-09-05T10:24:48.891Z,97500.14
2022-09-05T10:28:06.593Z,97496.53
2022-09-05T10:34:42.470Z,97495.61
2022-09-05T10:35:20.798Z,97490.41
2022-09-05T10:37:42.604Z,97494.52
2022-09-05T10:40:39.715Z,97487.05
2022-09-05T10:44:03.958Z,97490.17
2022-09-05T10:47:18.591Z,97490.89
2022-09-05T10:50:33.516Z,97492.02
2022-09-05T10:53:28.241Z,97488.30
2022-09-05T10:56:31.042Z,97487.66
2022-09-05T11:02:19.509Z,97485.46
2022-09-05T11:02:57.581Z,97475.85
2022-09-05T11:06:08.815Z,97483.11
2022-09-05T11:09:16.581Z,97486.42
2022-09-05T11:12:12.406Z,97488.48
2022-09-05T11:15:02.741Z,97485.93
2022-09-05T11:17:58.218Z,97488.08
2022-09-05T11:20:47.119Z,97485.27
2022-09-05T11:23:43.340Z,97484.66
2022-09-05T11:27:24.930Z,97484.17
2022-09-05T11:30:29.004Z,97482.91
2022-09-05T11:39:51.719Z,97480.73
2022-09-05T11:39:56.070Z,97476.09
2022-09-05T11:40:31.209Z,97473.62
2022-09-05T11:43:59.050Z,97469.48
2022-09-05T11:47:14.293Z,97467.61
2022-09-05T11:50:31.337Z,97466.36
2022-09-05T11:54:01.510Z,97462.11
2022-09-05T11:57:31.943Z,97457.57
2022-09-05T12:00:34.184Z,97454.97
2022-09-05T12:03:57.357Z,97445.81
2022-09-05T12:06:57.011Z,97443.55
2022-09-05T12:10:02.635Z,97444.34
2022-09-05T12:13:07.847Z,97441.16
2022-09-05T12:16:08.175Z,97436.75
2022-09-05T12:19:34.652Z,97436.11
2022-09-05T12:22:52.807Z,97429.90
2022-09-05T12:27:38.041Z,97436.02
2022-09-05T12:29:34.001Z,97438.91
2022-09-05T12:34:46.745Z,97432.76
2022-09-05T12:36:12.499Z,97427.13
2022-09-05T12:40:46.276Z,97420.83
2022-09-05T12:42:54.791Z,97419.30
2022-09-05T12:46:23.589Z,97413.52
2022-09-05T12:49:21.500Z,97411.58
2022-09-05T12:52:40.817Z,97405.53
2022-09-05T12:55:33.659Z,97401.94
2022-09-05T13:02:55.797Z,97400.55
2022-09-05T13:03:14.238Z,97400.67
2022-09-05T13:05:01.163Z,97396.28
2022-09-05T13:07:56.467Z,97393.12
2022-09-05T13:14:47.371Z,97390.86
2022-09-05T13:15:03.006Z,97393.77
2022-09-05T13:17:26.554Z,97389.29
2022-09-05T13:20:21.759Z,97390.83
2022-09-05T13:23:23.707Z,97390.49
2022-09-05T13:26:17.750Z,97392.87
2022-09-05T13:29:25.625Z,97389.52
2022-09-05T13:38:07.746Z,97387.22
2022-09-05T13:38:41.966Z,97389.60
2022-09-05T13:39:05.150Z,97385.87
2022-09-05T13:42:03.795Z,97389.58
2022-09-05T13:44:57.685Z,97391.81
2022-09-05T13:48:15.551Z,97393.85
2022-09-05T13:51:27.743Z,97393.67
2022-09-05T13:54:36.495Z,97394.69
2022-09-05T13:57:32.531Z,97392.95
2022-09-05T14:00:29.074Z,97391.64
2022-09-05T14:03:50.701Z,97396.35
2022-09-05T14:10:55.778Z,97405.02
2022-09-05T14:15:08.219Z,97402.79
2022-09-05T14:17:56.902Z,97402.19
2022-09-05T14:21:17.978Z,97400.83
2022-09-05T14:24:16.943Z,97399.54
2022-09-05T14:27:30.396Z,97399.08
2022-09-05T14:33:32.490Z,97399.63
2022-09-05T14:37:40.489Z,97404.18
2022-09-05T14:37:49.519Z,97410.11
2022-09-05T14:40:32.543Z,97411.45
2022-09-05T14:43:32.483Z,97412.27
2022-09-05T14:46:38.765Z,97411.69
2022-09-05T14:49:40.249Z,97412.02
2022-09-05T14:52:25.965Z,97411.13
2022-09-05T15:02:40.714Z,97407.05
2022-09-05T15:02:48.564Z,97408.48
2022-09-05T15:06:39.845Z,97402.67
2022-09-05T15:11:42.650Z,97403.70
2022-09-05T15:12:31.251Z,97402.89
2022-09-05T15:15:31.504Z,97404.39
2022-09-05T15:18:05.398Z,97404.41
2022-09-05T15:20:38.078Z,97404.17
2022-09-05T15:23:16.701Z,97402.83
2022-09-05T15:25:50.296Z,97401.14
2022-09-05T15:28:30.370Z,97401.93
2022-09-05T15:31:04.781Z,97402.98
2022-09-05T15:33:34.147Z,97403.74
2022-09-05T15:36:05.255Z,97403.73
2022-09-05T15:38:55.382Z,97405.48
2022-09-05T15:41:29.173Z,97405.17
2022-09-05T15:44:03.327Z,97404.46
2022-09-05T15:46:39.490Z,97405.55
2022-09-05T15:49:24.396Z,97407.81
2022-09-05T15:51:57.128Z,97401.70
2022-09-05T15:54:39.201Z,97399.45
2022-09-05T15:57:17.863Z,97394.54
2022-09-05T15:59:51.804Z,97397.69
2022-09-05T16:02:25.302Z,97399.96
2022-09-05T16:10:28.318Z,97395.08
2022-09-05T16:10:39.374Z,97395.46
2022-09-05T16:11:07.736Z,97398.55
2022-09-05T16:13:53.274Z,97398.52
2022-09-05T16:22:24.584Z,97400.14
2022-09-05T16:23:14.501Z,97400.80
2022-09-05T16:23:24.446Z,97399.38
2022-09-05T16:25:22.110Z,97398.31
2022-09-05T16:27:52.786Z,97398.16
2022-09-05T16:30:27.182Z,97395.02
2022-09-05T16:33:06.516Z,97392.75
2022-09-05T16:35:42.157Z,97396.39
2022-09-05T16:38:49.947Z,97392.00
2022-09-05T16:41:43.495Z,97391.92
2022-09-05T16:44:43.993Z,97391.30
2022-09-05T16:47:45.077Z,97391.01
2022-09-05T16:50:16.644Z,97391.20
2022-09-05T16:52:53.519Z,97392.55
2022-09-05T16:55:39.386Z,97392.50
2022-09-05T16:58:24.863Z,97394.91
2022-09-05T17:01:23.466Z,97397.05
2022-09-05T17:04:16.497Z,97398.36
2022-09-05T17:07:13.591Z,97400.27
2022-09-05T17:09:44.103Z,97400.85
2022-09-05T17:12:23.790Z,97400.11
2022-09-05T17:14:56.780Z,97399.15
2022-09-05T17:18:20.740Z,97400.86
2022-09-05T17:20:40.892Z,97401.58
2022-09-05T17:29:19.986Z,97400.14
2022-09-05T17:29:29.506Z,97397.05
2022-09-05T17:32:38.604Z,97400.94
2022-09-05T17:35:44.676Z,97404.95
2022-09-05T17:38:16.135Z,97407.45
2022-09-05T17:41:33.744Z,97411.77
2022-09-05T17:44:13.898Z,97416.05
2022-09-05T17:46:52.767Z,97415.37
2022-09-05T17:49:45.350Z,97422.76
2022-09-05T17:52:19.589Z,97427.59
2022-09-05T17:54:52.851Z,97425.64
2022-09-05T17:57:35.358Z,97423.57
2022-09-05T18:00:23.333Z,97428.20
2022-09-05T18:02:56.993Z,97428.86
2022-09-05T18:05:57.064Z,97429.52
2022-09-05T18:08:49.676Z,97430.63
2022-09-05T18:11:25.754Z,97435.69
2022-09-05T18:17:36.365Z,97431.48
2022-09-05T18:19:57.907Z,97431.55
2022-09-05T18:22:38.734Z,97434.75
2022-09-05T18:25:30.586Z,97440.14
2022-09-05T18:28:22.692Z,97443.22
2022-09-05T18:30:51.251Z,97444.70
2022-09-05T18:33:55.809Z,97438.80
2022-09-05T18:36:25.959Z,97436.98
2022-09-05T18:39:27.229Z,97435.66
2022-09-05T18:42:33.463Z,97428.11
2022-09-05T18:45:14.661Z,97425.28
2022-09-05T18:47:52.991Z,97422.77
2022-09-05T18:50:32.423Z,97421.61
2022-09-05T18:53:10.271Z,97417.83
2022-09-05T18:56:12.426Z,97413.04
2022-09-05T18:59:09.914Z,97415.66
2022-09-05T19:02:00.414Z,97414.38
2022-09-05T19:04:39.584Z,97410.11
2022-09-05T19:07:22.527Z,97409.77
2022-09-05T19:10:34.355Z,97411.67
2022-09-05T19:13:03.172Z,97408.73
2022-09-05T19:15:36.537Z,97413.24
2022-09-05T19:18:36.922Z,97409.56
2022-09-05T19:21:11.938Z,97414.77
2022-09-05T19:23:47.794Z,97413.31
2022-09-05T19:26:16.806Z,97412.01
2022-09-05T19:36:58.423Z,97412.98
2022-09-05T19:36:58.629Z,97407.91
2022-09-05T19:37:09.607Z,97404.78
2022-09-05T19:37:38.684Z,97403.94
2022-09-05T19:45:11.321Z,97404.88
2022-09-05T19:47:41.664Z,97407.11
2022-09-05T19:47:42.432Z,97407.02
2022-09-05T19:49:12.667Z,97409.16
2022-09-05T19:51:41.987Z,97405.59
2022-09-05T19:54:27.147Z,97403.95
2022-09-05T19:57:04.259Z,97408.04
2022-09-05T19:59:44.698Z,97408.90
2022-09-05T20:02:25.684Z,97408.23
2022-09-05T20:05:00.303Z,97412.42
2022-09-05T20:07:31.371Z,97413.71
2022-09-05T20:10:04.234Z,97414.15
2022-09-05T20:12:36.407Z,97413.80
2022-09-05T20:15:23.466Z,97413.42
2022-09-05T20:17:54.095Z,97414.64
2022-09-05T20:20:30.722Z,97417.35
2022-09-05T20:23:02.562Z,97416.02
2022-09-05T20:25:43.887Z,97412.61
2022-09-05T20:28:17.586Z,97411.55
2022-09-05T20:30:54.293Z,97408.58
2022-09-05T20:33:32.240Z,97406.77
2022-09-05T20:40:20.662Z,97404.44
2022-09-05T20:43:10.966Z,97398.80
2022-09-05T20:43:18.211Z,97402.70
2022-09-05T20:44:50.995Z,97400.70
2022-09-05T20:54:07.047Z,97399.11
2022-09-05T20:54:18.227Z,97395.90
2022-09-05T20:54:18.860Z,97397.11
2022-09-05T20:56:19.445Z,97396.90
2022-09-05T20:58:50.364Z,97398.86
2022-09-05T21:01:23.636Z,97398.73
2022-09-05T21:03:56.989Z,97397.79
2022-09-05T21:06:41.514Z,97396.36
2022-09-05T21:09:25.130Z,97395.05
2022-09-05T21:11:56.434Z,97390.98
2022-09-05T21:14:28.464Z,97393.77
2022-09-05T21:17:00.445Z,97390.33
2022-09-05T21:19:30.352Z,97393.74
2022-09-05T21:22:05.279Z,97394.17
2022-09-05T21:24:34.123Z,97394.86
2022-09-05T21:27:23.073Z,97393.77
2022-09-05T21:29:58.720Z,97391.67
2022-09-05T21:32:36.151Z,97391.19
2022-09-05T21:35:33.941Z,97390.64
2022-09-05T21:37:59.060Z,97391.48
2022-09-05T21:40:27.861Z,97384.89
2022-09-05T21:47:36.027Z,97386.77
2022-09-05T21:47:49.929Z,97379.91
2022-09-05T21:48:42.061Z,97378.83
2022-09-05T21:51:13.394Z,97375.91
2022-09-05T21:59:13.263Z,97375.51
2022-09-05T21:59:17.909Z,97375.40
2022-09-05T21:59:47.104Z,97373.25
2022-09-05T22:02:17.419Z,97373.19
2022-09-05T22:04:47.384Z,97373.41
2022-09-05T22:07:25.367Z,97374.42
2022-09-05T22:10:06.119Z,97372.12
2022-09-05T22:12:39.112Z,97371.53
2022-09-05T22:15:28.234Z,97371.70
2022-09-05T22:18:17.241Z,97369.29
2022-09-05T22:20:53.478Z,97368.60
2022-09-05T22:23:40.386Z,97365.14
2022-09-05T22:26:08.688Z,97368.05
2022-09-05T22:28:38.937Z,97370.19
2022-09-05T22:31:08.205Z,97372.82
2022-09-05T22:33:36.588Z,97378.70
2022-09-05T22:36:05.035Z,97379.02
2022-09-05T22:38:33.486Z,97381.64
2022-09-05T22:41:06.099Z,97381.23
2022-09-05T22:43:34.678Z,97378.77
2022-09-05T22:46:04.072Z,97378.20
2022-09-05T22:48:32.307Z,97374.27
2022-09-05T22:51:00.568Z,97376.16
2022-09-05T22:53:28.744Z,97377.36
2022-09-05T22:56:00.099Z,97375.13
2022-09-05T22:58:30.889Z,97379.21
2022-09-05T23:01:01.389Z,97381.69
2022-09-05T23:03:29.762Z,97379.41
2022-09-05T23:06:07.582Z,97379.64
2022-09-05T23:08:36.170Z,97376.40
2022-09-05T23:11:13.069Z,97374.28
2022-09-05T23:13:41.920Z,97370.66
2022-09-05T23:16:11.117Z,97366.08
2022-09-05T23:18:39.757Z,97364.91
2022-09-05T23:21:12.342Z,97367.29
2022-09-05T23:23:41.735Z,97365.92
2022-09-05T23:26:15.058Z,97366.70
2022-09-05T23:28:44.280Z,97363.45
2022-09-05T23:31:13.357Z,97365.67
2022-09-05T23:33:42.506Z,97360.60
2022-09-05T23:36:16.044Z,97357.95
2022-09-05T23:38:44.742Z,97354.70
2022-09-05T23:41:14.749Z,97354.70
2022-09-05T23:43:43.690Z,97355.16
2022-09-05T23:46:11.977Z,97357.41
2022-09-05T23:48:40.586Z,97354.96
2022-09-05T23:51:10.873Z,97353.86
2022-09-05T23:53:40.010Z,97347.23
2022-09-05T23:56:10.414Z,97349.93
2022-09-05T23:58:39.025Z,97348.33
